createdAt,value
2022-08-05T00:00:20.033Z,21.03
2022-08-05T00:02:50.998Z,21.04
2022-08-05T00:06:01.903Z,20.93
2022-08-05T00:08:32.460Z,20.95
2022-08-05T00:11:01.735Z,20.89
2022-08-05T00:13:39.175Z,20.90
2022-08-05T00:16:10.871Z,20.77
2022-08-05T00:18:40.604Z,20.65
2022-08-05T00:21:09.437Z,20.92
2022-08-05T00:23:45.616Z,20.95
2022-08-05T00:26:17.852Z,20.92
2022-08-05T00:28:47.457Z,20.70
2022-08-05T00:31:16.534Z,20.95
2022-08-05T00:34:54.739Z,20.89
2022-08-05T00:37:11.269Z,20.82
2022-08-05T00:39:58.566Z,20.85
2022-08-05T00:42:37.488Z,20.89
2022-08-05T00:45:11.481Z,21.02
2022-08-05T00:47:56.706Z,20.90
2022-08-05T00:50:33.070Z,20.74
2022-08-05T00:52:59.986Z,20.88
2022-08-05T00:55:42.624Z,20.95
2022-08-05T00:58:17.016Z,21.04
2022-08-05T01:00:47.497Z,21.07
2022-08-05T01:03:22.762Z,21.01
2022-08-05T01:05:54.514Z,20.82
2022-08-05T01:08:41.365Z,20.75
2022-08-05T01:11:36.672Z,20.95
2022-08-05T01:14:27.726Z,20.97
2022-08-05T01:17:09.709Z,20.94
2022-08-05T01:20:33.070Z,20.78
2022-08-05T01:23:24.464Z,20.57
2022-08-05T01:26:13.310Z,20.83
2022-08-05T01:28:57.654Z,20.71
2022-08-05T01:31:48.912Z,20.78
2022-08-05T01:34:31.527Z,20.78
2022-08-05T01:37:18.078Z,20.64
2022-08-05T01:39:59.171Z,20.70
2022-08-05T01:42:31.653Z,20.53
2022-08-05T01:45:04.460Z,20.56
2022-08-05T01:47:43.368Z,20.73
2022-08-05T01:50:29.688Z,20.59
2022-08-05T01:53:04.538Z,20.66
2022-08-05T01:55:36.131Z,20.62
2022-08-05T01:58:29.620Z,20.57
2022-08-05T02:00:58.174Z,20.36
2022-08-05T02:03:34.267Z,20.53
2022-08-05T02:06:33.603Z,20.50
2022-08-05T02:08:58.457Z,20.43
2022-08-05T02:11:33.129Z,20.31
2022-08-05T02:14:15.634Z,20.28
2022-08-05T02:16:54.478Z,20.42
2022-08-05T02:19:35.142Z,20.18
2022-08-05T02:22:41.883Z,20.25
2022-08-05T02:25:18.423Z,20.43
2022-08-05T02:27:58.263Z,20.34
2022-08-05T02:30:30.916Z,20.33
2022-08-05T02:33:00.312Z,20.38
2022-08-05T02:35:37.399Z,20.34
2022-08-05T02:38:09.408Z,20.16
2022-08-05T02:40:41.318Z,20.30
2022-08-05T02:43:13.142Z,20.28
2022-08-05T02:45:52.538Z,20.21
2022-08-05T02:48:29.559Z,20.18
2022-08-05T02:51:00.300Z,20.06
2022-08-05T02:53:39.446Z,20.19
2022-08-05T02:56:16.164Z,20.18
2022-08-05T02:58:51.454Z,20.03
2022-08-05T03:01:24.918Z,20.18
2022-08-05T03:04:03.181Z,19.99
2022-08-05T03:06:55.330Z,20.19
2022-08-05T03:09:27.162Z,20.15
2022-08-05T03:12:04.799Z,20.31
2022-08-05T03:14:31.616Z,20.09
2022-08-05T03:16:59.122Z,20.07
2022-08-05T03:19:33.253Z,19.83
2022-08-05T03:22:05.162Z,20.06
2022-08-05T03:24:47.233Z,20.13
2022-08-05T03:27:18.682Z,20.16
2022-08-05T03:30:07.243Z,20.02
2022-08-05T03:32:32.804Z,19.82
2022-08-05T03:35:00.785Z,20.16
2022-08-05T03:37:31.055Z,20.31
2022-08-05T03:40:12.003Z,20.49
2022-08-05T03:42:41.747Z,20.35
2022-08-05T03:45:21.378Z,20.52
2022-08-05T03:47:50.252Z,20.58
2022-08-05T03:50:17.633Z,20.68
2022-08-05T03:55:07.104Z,20.68
2022-08-05T03:56:05.915Z,20.47
2022-08-05T03:58:33.615Z,20.50
2022-08-05T04:01:02.301Z,20.18
2022-08-05T04:03:38.001Z,20.55
2022-08-05T04:06:06.976Z,20.52
2022-08-05T04:08:37.058Z,20.59
2022-08-05T04:11:08.598Z,20.73
2022-08-05T04:13:50.960Z,20.61
2022-08-05T04:16:24.174Z,20.69
2022-08-05T04:18:54.428Z,20.70
2022-08-05T04:22:04.997Z,20.74
2022-08-05T04:24:18.716Z,20.86
2022-08-05T04:26:49.248Z,20.82
2022-08-05T04:29:16.041Z,20.86
2022-08-05T04:31:42.951Z,20.89
2022-08-05T04:34:31.247Z,20.83
2022-08-05T04:36:57.328Z,20.68
2022-08-05T04:39:24.395Z,20.81
2022-08-05T04:41:54.285Z,20.60
2022-08-05T04:44:29.979Z,20.70
2022-08-05T04:46:58.715Z,20.50
2022-08-05T04:49:39.212Z,20.74
2022-08-05T04:52:13.202Z,20.82
2022-08-05T04:54:40.128Z,20.67
2022-08-05T04:57:06.913Z,20.98
2022-08-05T04:59:36.831Z,20.91
2022-08-05T05:02:36.679Z,21.08
2022-08-05T05:04:53.418Z,21.11
2022-08-05T05:07:31.918Z,20.97
2022-08-05T05:09:59.262Z,21.16
2022-08-05T05:12:29.479Z,21.10
2022-08-05T05:14:56.248Z,21.02
2022-08-05T05:17:24.536Z,20.97
2022-08-05T05:20:11.730Z,21.10
2022-08-05T05:22:40.875Z,21.13
2022-08-05T05:25:16.519Z,20.98
2022-08-05T05:27:53.439Z,21.01
2022-08-05T05:30:29.866Z,20.97
2022-08-05T05:33:03.890Z,20.76
2022-08-05T05:35:44.010Z,20.84
2022-08-05T05:38:13.360Z,20.71
2022-08-05T05:40:49.866Z,20.75
2022-08-05T05:43:54.065Z,20.58
2022-08-05T05:46:15.753Z,20.53
2022-08-05T05:48:44.475Z,20.72
2022-08-05T05:51:15.617Z,20.38
2022-08-05T05:53:54.141Z,20.50
2022-08-05T05:56:33.185Z,20.34
2022-08-05T05:59:07.389Z,20.49
2022-08-05T06:01:38.107Z,20.50
2022-08-05T06:04:12.223Z,20.42
2022-08-05T06:06:42.759Z,20.43
2022-08-05T06:09:17.601Z,20.60
2022-08-05T06:12:01.604Z,20.67
2022-08-05T06:14:30.622Z,20.64
2022-08-05T06:16:58.419Z,20.76
2022-08-05T06:19:35.238Z,20.80
2022-08-05T06:22:04.295Z,20.82
2022-08-05T06:24:36.745Z,20.76
2022-08-05T06:27:04.903Z,20.66
2022-08-05T06:29:49.361Z,20.75
2022-08-05T06:32:25.895Z,20.59
2022-08-05T06:34:57.934Z,20.69
2022-08-05T06:37:56.480Z,20.51
2022-08-05T06:40:18.237Z,20.69
2022-08-05T06:42:48.883Z,20.73
2022-08-05T06:45:21.148Z,20.85
2022-08-05T06:48:44.222Z,20.90
2022-08-05T06:50:35.686Z,21.06
2022-08-05T06:53:04.081Z,21.02
2022-08-05T06:55:38.565Z,21.21
2022-08-05T06:58:29.884Z,21.27
2022-08-05T07:01:00.251Z,21.40
2022-08-05T07:03:32.564Z,21.37
2022-08-05T07:06:05.963Z,21.24
2022-08-05T07:08:47.704Z,21.32
2022-08-05T07:11:22.387Z,21.36
2022-08-05T07:14:15.348Z,21.44
2022-08-05T07:18:00.542Z,21.66
2022-08-05T07:22:28.421Z,21.73
2022-08-05T07:24:58.638Z,21.56
2022-08-05T07:27:27.303Z,21.73
2022-08-05T07:30:27.321Z,21.91
2022-08-05T07:32:53.428Z,21.81
2022-08-05T07:36:01.624Z,21.97
2022-08-05T07:38:07.368Z,22.13
2022-08-05T07:40:39.561Z,21.79
2022-08-05T07:43:20.148Z,22.34
2022-08-05T07:45:57.224Z,22.37
2022-08-05T07:49:02.627Z,22.37
2022-08-05T07:51:23.077Z,22.48
2022-08-05T07:53:59.386Z,22.60
2022-08-05T07:57:00.002Z,22.68
2022-08-05T07:59:15.784Z,22.76
2022-08-05T08:01:52.060Z,22.42
2022-08-05T08:04:37.684Z,22.73
2022-08-05T08:07:07.420Z,22.58
2022-08-05T08:09:35.531Z,22.67
2022-08-05T08:12:14.018Z,22.34
2022-08-05T08:14:46.673Z,22.79
2022-08-05T08:17:21.341Z,22.78
2022-08-05T08:20:21.697Z,22.92
2022-08-05T08:22:36.022Z,23.10
2022-08-05T08:25:03.985Z,23.14
2022-08-05T08:27:45.048Z,23.44
2022-08-05T08:30:29.976Z,23.55
2022-08-05T08:33:13.724Z,23.39
2022-08-05T08:35:53.790Z,23.34
2022-08-05T08:38:35.283Z,23.52
2022-08-05T08:41:07.517Z,23.43
2022-08-05T08:45:20.709Z,23.49
2022-08-05T08:46:26.677Z,23.57
2022-08-05T08:49:07.918Z,23.80
2022-08-05T08:52:03.359Z,24.18
2022-08-05T08:54:34.212Z,24.54
2022-08-05T08:57:11.266Z,24.95
2022-08-05T08:59:41.876Z,25.29
2022-08-05T09:02:16.721Z,25.40
2022-08-05T09:04:58.202Z,25.40
2022-08-05T09:07:40.060Z,25.50
2022-08-05T09:10:20.369Z,25.72
2022-08-05T09:12:51.044Z,25.96
2022-08-05T09:15:20.386Z,26.20
2022-08-05T09:17:49.409Z,26.50
2022-08-05T09:20:36.216Z,26.61
2022-08-05T09:23:37.474Z,26.61
2022-08-05T09:26:15.919Z,27.02
2022-08-05T09:28:49.466Z,26.99
2022-08-05T09:31:22.093Z,27.27
2022-08-05T09:33:56.838Z,27.22
2022-08-05T09:36:27.561Z,27.29
2022-08-05T09:39:18.006Z,27.54
2022-08-05T09:42:08.501Z,28.09
2022-08-05T09:44:44.045Z,28.32
2022-08-05T09:47:15.643Z,27.68
2022-08-05T09:50:00.473Z,28.02
2022-08-05T09:52:35.571Z,28.26
2022-08-05T09:55:57.457Z,27.95
2022-08-05T09:57:54.697Z,27.65
2022-08-05T10:00:26.739Z,27.56
2022-08-05T10:02:58.124Z,27.64
2022-08-05T10:05:28.311Z,27.44
2022-08-05T10:08:36.515Z,26.87
2022-08-05T10:10:53.938Z,26.13
2022-08-05T10:13:47.435Z,26.27
2022-08-05T10:16:41.893Z,26.16
2022-08-05T10:19:23.813Z,25.80
2022-08-05T10:22:08.954Z,25.68
2022-08-05T10:24:39.756Z,25.29
2022-08-05T10:27:07.545Z,25.17
2022-08-05T10:30:06.468Z,25.01
2022-08-05T10:32:53.303Z,25.09
2022-08-05T10:35:11.162Z,24.92
2022-08-05T10:37:44.745Z,24.76
2022-08-05T10:40:34.456Z,24.64
2022-08-05T10:43:51.956Z,24.40
2022-08-05T10:46:23.962Z,24.52
2022-08-05T10:49:02.672Z,24.49
2022-08-05T10:51:59.638Z,24.39
2022-08-05T10:54:57.040Z,24.54
2022-08-05T10:57:31.792Z,24.90
2022-08-05T11:00:24.646Z,24.92
2022-08-05T11:03:25.563Z,24.81
2022-08-05T11:06:15.449Z,24.91
2022-08-05T11:09:18.502Z,24.95
2022-08-05T11:11:54.137Z,24.74
2022-08-05T11:14:57.606Z,25.00
2022-08-05T11:17:59.587Z,24.99
2022-08-05T11:20:41.646Z,25.13
2022-08-05T11:23:33.501Z,25.37
2022-08-05T11:26:29.223Z,25.60
2022-08-05T11:29:06.577Z,25.61
2022-08-05T11:31:58.420Z,26.03
2022-08-05T11:34:50.767Z,25.73
2022-08-05T11:38:30.972Z,25.38
2022-08-05T11:41:01.787Z,25.35
2022-08-05T11:44:04.841Z,25.35
2022-08-05T11:46:58.569Z,25.33
2022-08-05T11:49:35.153Z,25.44
2022-08-05T11:52:11.186Z,25.54
2022-08-05T11:54:40.666Z,25.52
2022-08-05T11:57:24.353Z,25.93
2022-08-05T11:59:53.237Z,25.92
2022-08-05T12:02:31.999Z,26.01
2022-08-05T12:05:06.884Z,25.95
2022-08-05T12:08:03.663Z,26.04
2022-08-05T12:10:42.884Z,25.86
2022-08-05T12:13:14.001Z,25.97
2022-08-05T12:15:49.734Z,25.71
2022-08-05T12:18:32.462Z,25.59
2022-08-05T12:21:21.048Z,26.04
2022-08-05T12:24:06.919Z,26.32
2022-08-05T12:26:37.277Z,26.31
2022-08-05T12:29:09.531Z,26.18
2022-08-05T12:31:42.402Z,26.05
2022-08-05T12:34:14.660Z,26.61
2022-08-05T12:36:48.504Z,26.43
2022-08-05T12:39:15.777Z,26.34
2022-08-05T12:41:43.785Z,26.53
2022-08-05T12:44:14.230Z,26.01
2022-08-05T12:46:45.489Z,25.99
2022-08-05T12:49:15.010Z,26.62
2022-08-05T12:52:12.831Z,26.64
2022-08-05T12:54:37.471Z,26.67
2022-08-05T12:57:09.633Z,26.74
2022-08-05T13:00:08.430Z,26.82
2022-08-05T13:02:32.456Z,26.94
2022-08-05T13:04:59.430Z,26.93
2022-08-05T13:07:55.001Z,26.86
2022-08-05T13:10:20.204Z,27.03
2022-08-05T13:12:57.418Z,26.98
2022-08-05T13:15:42.146Z,27.22
2022-08-05T13:18:20.185Z,27.31
2022-08-05T13:20:49.015Z,27.30
2022-08-05T13:23:22.179Z,27.07
2022-08-05T13:25:59.468Z,26.57
2022-08-05T13:28:28.350Z,26.30
2022-08-05T13:30:55.880Z,26.73
2022-08-05T13:34:24.606Z,26.55
2022-08-05T13:36:13.126Z,26.62
2022-08-05T13:38:42.428Z,26.55
2022-08-05T13:41:11.220Z,26.26
2022-08-05T13:43:45.446Z,26.12
2022-08-05T13:46:44.364Z,26.31
2022-08-05T13:49:10.555Z,26.40
2022-08-05T13:51:40.931Z,26.48
2022-08-05T13:54:15.079Z,26.50
2022-08-05T13:56:45.576Z,26.50
2022-08-05T13:59:19.692Z,26.51
2022-08-05T14:01:58.284Z,26.68
2022-08-05T14:04:54.173Z,26.69
2022-08-05T14:07:59.705Z,26.38
2022-08-05T14:10:28.668Z,26.51
2022-08-05T14:12:57.782Z,26.53
2022-08-05T14:16:09.286Z,26.37
2022-08-05T14:18:23.440Z,26.54
2022-08-05T14:20:55.005Z,26.33
2022-08-05T14:23:24.865Z,26.40
2022-08-05T14:25:58.616Z,26.00
2022-08-05T14:28:30.506Z,26.00
2022-08-05T14:31:01.067Z,25.82
2022-08-05T14:33:32.647Z,25.86
2022-08-05T14:36:15.562Z,25.91
2022-08-05T14:38:47.633Z,25.89
2022-08-05T14:41:17.813Z,25.83
2022-08-05T14:43:59.502Z,25.87
2022-08-05T14:46:30.743Z,25.84
2022-08-05T14:49:06.390Z,25.80
2022-08-05T14:51:34.534Z,25.68
2022-08-05T14:54:27.501Z,25.72
2022-08-05T14:56:48.672Z,25.94
2022-08-05T14:59:16.102Z,25.75
2022-08-05T15:01:48.463Z,25.61
2022-08-05T15:04:17.471Z,25.62
2022-08-05T15:06:49.501Z,25.18
2022-08-05T15:09:51.138Z,25.22
2022-08-05T15:12:05.798Z,25.39
2022-08-05T15:14:34.595Z,25.37
2022-08-05T15:17:44.478Z,25.67
2022-08-05T15:19:57.377Z,25.40
2022-08-05T15:22:27.024Z,25.34
2022-08-05T15:24:55.042Z,25.50
2022-08-05T15:27:21.897Z,25.57
2022-08-05T15:29:56.507Z,25.65
2022-08-05T15:32:27.394Z,25.62
2022-08-05T15:34:55.809Z,25.52
2022-08-05T15:38:33.217Z,25.38
2022-08-05T15:41:00.432Z,25.32
2022-08-05T15:43:09.052Z,25.12
2022-08-05T15:45:45.699Z,25.18
2022-08-05T15:48:14.052Z,25.34
2022-08-05T15:50:43.907Z,25.36
2022-08-05T15:53:13.124Z,25.24
2022-08-05T15:56:02.223Z,25.29
2022-08-05T15:58:36.842Z,25.24
2022-08-05T16:01:16.699Z,25.11
2022-08-05T16:03:48.573Z,24.64
2022-08-05T16:06:19.967Z,24.60
2022-08-05T16:08:50.276Z,24.51
2022-08-05T16:11:18.256Z,24.48
2022-08-05T16:13:48.677Z,24.33
2022-08-05T16:16:25.237Z,24.05
2022-08-05T16:18:53.061Z,23.99
2022-08-05T16:21:20.572Z,24.21
2022-08-05T16:24:07.748Z,24.29
2022-08-05T16:26:58.346Z,24.26
2022-08-05T16:29:26.778Z,24.03
2022-08-05T16:31:58.509Z,24.07
2022-08-05T16:34:26.921Z,24.10
2022-08-05T16:36:55.092Z,24.12
2022-08-05T16:39:22.742Z,23.89
2022-08-05T16:42:14.278Z,24.00
2022-08-05T16:44:44.313Z,23.92
2022-08-05T16:47:28.595Z,23.98
2022-08-05T16:50:05.470Z,23.80
2022-08-05T16:52:32.736Z,23.64
2022-08-05T16:55:00.530Z,23.51
2022-08-05T16:57:50.454Z,23.72
2022-08-05T17:00:14.705Z,23.55
2022-08-05T17:03:15.154Z,23.48
2022-08-05T17:05:53.203Z,23.22
2022-08-05T17:08:36.503Z,23.44
2022-08-05T17:11:12.845Z,23.57
2022-08-05T17:13:44.475Z,23.17
2022-08-05T17:16:29.926Z,23.62
2022-08-05T17:18:59.200Z,23.72
2022-08-05T17:21:26.068Z,23.74
2022-08-05T17:24:28.114Z,23.69
2022-08-05T17:26:55.619Z,23.73
2022-08-05T17:29:33.988Z,23.46
2022-08-05T17:32:11.300Z,23.79
2022-08-05T17:34:38.989Z,23.63
2022-08-05T17:37:29.443Z,23.61
2022-08-05T17:39:55.750Z,23.73
2022-08-05T17:42:26.983Z,23.84
2022-08-05T17:44:57.185Z,23.80
2022-08-05T17:47:23.920Z,23.75
2022-08-05T17:50:00.475Z,23.77
2022-08-05T17:52:32.299Z,23.85
2022-08-05T17:54:59.924Z,23.82
2022-08-05T17:57:27.654Z,23.79
2022-08-05T18:00:05.458Z,23.77
2022-08-05T18:02:35.789Z,23.48
2022-08-05T18:05:07.746Z,23.77
2022-08-05T18:07:41.435Z,23.71
2022-08-05T18:10:11.109Z,23.74
2022-08-05T18:12:39.248Z,23.93
2022-08-05T18:15:06.687Z,23.86
2022-08-05T18:17:59.025Z,23.91
2022-08-05T18:20:29.354Z,24.01
2022-08-05T18:23:00.770Z,23.96
2022-08-05T18:25:39.879Z,23.88
2022-08-05T18:28:16.223Z,23.86
2022-08-05T18:30:51.083Z,23.89
2022-08-05T18:33:22.529Z,23.98
2022-08-05T18:36:04.209Z,24.03
2022-08-05T18:38:37.312Z,24.09
2022-08-05T18:41:55.342Z,24.07
2022-08-05T18:43:53.144Z,24.05
2022-08-05T18:46:20.691Z,24.06
2022-08-05T18:48:52.641Z,23.90
2022-08-05T18:52:04.881Z,23.91
2022-08-05T18:54:31.075Z,24.08
2022-08-05T18:57:01.316Z,23.73
2022-08-05T18:59:43.652Z,23.70
2022-08-05T19:02:38.124Z,24.07
2022-08-05T19:06:05.532Z,23.88
2022-08-05T19:07:52.832Z,23.96
2022-08-05T19:10:27.946Z,23.81
2022-08-05T19:12:56.477Z,23.82
2022-08-05T19:15:58.199Z,23.57
2022-08-05T19:18:20.889Z,23.77
2022-08-05T19:20:53.752Z,23.98
2022-08-05T19:24:04.119Z,23.82
2022-08-05T19:26:09.404Z,23.95
2022-08-05T19:28:42.276Z,23.70
2022-08-05T19:31:17.752Z,23.77
2022-08-05T19:33:55.644Z,23.80
2022-08-05T19:36:29.284Z,23.20
2022-08-05T19:39:00.638Z,23.40
2022-08-05T19:41:58.078Z,23.27
2022-08-05T19:44:16.339Z,23.32
2022-08-05T19:46:43.723Z,23.18
2022-08-05T19:49:17.273Z,23.18
2022-08-05T19:52:09.142Z,23.08
2022-08-05T19:54:34.119Z,22.90
2022-08-05T19:57:06.513Z,22.60
2022-08-05T19:59:55.754Z,22.26
2022-08-05T20:02:23.390Z,22.45
2022-08-05T20:04:50.548Z,22.58
2022-08-05T20:07:46.662Z,22.45
2022-08-05T20:10:13.390Z,22.10
2022-08-05T20:12:46.350Z,22.37
2022-08-05T20:15:48.058Z,22.48
2022-08-05T20:18:10.750Z,22.34
2022-08-05T20:20:55.149Z,22.24
2022-08-05T20:23:23.124Z,22.13
2022-08-05T20:25:52.198Z,22.24
2022-08-05T20:28:19.671Z,22.05
2022-08-05T20:30:46.485Z,21.77
2022-08-05T20:33:16.457Z,22.00
2022-08-05T20:35:45.317Z,21.56
2022-08-05T20:38:20.268Z,21.97
2022-08-05T20:40:56.318Z,21.62
2022-08-05T20:43:33.404Z,21.63
2022-08-05T20:46:18.558Z,21.70
2022-08-05T20:48:51.974Z,21.71
2022-08-05T20:51:18.974Z,21.78
2022-08-05T20:53:55.256Z,21.51
2022-08-05T20:56:31.025Z,21.34
2022-08-05T20:59:13.891Z,21.76
2022-08-05T21:01:46.275Z,21.86
2022-08-05T21:04:14.206Z,21.81
2022-08-05T21:06:45.263Z,21.65
2022-08-05T21:09:14.248Z,21.71
2022-08-05T21:12:09.094Z,21.78
2022-08-05T21:14:31.453Z,21.69
2022-08-05T21:17:05.267Z,21.59
2022-08-05T21:19:46.390Z,21.64
2022-08-05T21:22:23.094Z,21.53
2022-08-05T21:24:52.412Z,21.55
2022-08-05T21:27:24.737Z,21.50
2022-08-05T21:29:55.437Z,21.71
2022-08-05T21:32:24.413Z,21.71
2022-08-05T21:34:55.838Z,21.67
2022-08-05T21:37:41.285Z,21.57
2022-08-05T21:40:13.722Z,21.67
2022-08-05T21:42:44.872Z,21.62
2022-08-05T21:45:24.622Z,21.69
2022-08-05T21:48:02.245Z,21.56
2022-08-05T21:50:33.456Z,21.41
2022-08-05T21:53:04.493Z,21.36
2022-08-05T21:56:01.737Z,21.31
2022-08-05T21:58:24.834Z,21.23
2022-08-05T22:00:58.823Z,21.13
2022-08-05T22:03:48.611Z,21.24
2022-08-05T22:06:12.726Z,21.11
2022-08-05T22:08:42.447Z,20.95
2022-08-05T22:11:15.705Z,21.06
2022-08-05T22:14:06.569Z,21.06
2022-08-05T22:16:42.064Z,21.05
2022-08-05T22:20:00.390Z,20.70
2022-08-05T22:22:04.649Z,21.01
2022-08-05T22:24:53.441Z,20.92
2022-08-05T22:28:09.336Z,20.82
2022-08-05T22:30:34.896Z,20.76
2022-08-05T22:33:02.507Z,20.69
2022-08-05T22:35:31.030Z,20.87
2022-08-05T22:38:05.785Z,20.88
2022-08-05T22:40:37.488Z,20.90
2022-08-05T22:43:05.402Z,20.80
2022-08-05T22:45:32.148Z,20.88
2022-08-05T22:47:59.727Z,20.69
2022-08-05T22:50:27.766Z,20.71
2022-08-05T22:52:55.511Z,20.82
2022-08-05T22:55:23.462Z,20.80
2022-08-05T22:57:51.998Z,20.81
2022-08-05T23:00:21.483Z,20.80
2022-08-05T23:02:50.554Z,20.78
2022-08-05T23:05:18.534Z,20.76
2022-08-05T23:07:49.555Z,20.77
2022-08-05T23:10:20.246Z,20.84
2022-08-05T23:12:54.712Z,20.57
2022-08-05T23:15:26.871Z,20.70
2022-08-05T23:18:01.700Z,20.62
2022-08-05T23:20:31.195Z,20.58
2022-08-05T23:22:59.087Z,20.83
2022-08-05T23:25:53.470Z,21.03
2022-08-05T23:28:12.848Z,20.95
2022-08-05T23:30:43.518Z,20.94
2022-08-05T23:33:22.057Z,20.94
2022-08-05T23:35:56.136Z,21.26
2022-08-05T23:38:24.557Z,21.21
2022-08-05T23:40:52.791Z,21.05
2022-08-05T23:43:25.091Z,21.25
2022-08-05T23:46:20.299Z,21.20
2022-08-05T23:48:59.943Z,21.36
2022-08-05T23:51:53.349Z,20.99
2022-08-05T23:54:29.878Z,21.20
2022-08-05T23:57:03.964Z,21.14
